Time;durP1;ratioP1;P1;durP2;ratioP2;P2;SDS_P1;SDS_P2;PMS_P1;PMS_P2;Temp;Humidity;BMP_temperature;BMP_pressure;BME280_temperature;BME280_humidity;BME280_pressure;Samples;Min_cycle;Max_cycle;Signal;HPM_P1;HPM_P2
2022/09/28 00:03:28;;;;;;;11.00;5.40;;;;;;;9.46;81.65;96956.63;433647;1267;109036;-41
2022/09/28 00:13:34;;;;;;;7.00;4.90;;;;;;;9.62;81.72;96953.42;433749;1268;99303;-38
2022/09/28 00:34:04;;;;;;;9.10;6.00;;;;;;;9.47;81.61;96940.98;434042;1268;98831;-41
2022/09/28 00:54:43;;;;;;;12.10;5.60;;;;;;;8.75;81.48;96925.81;433959;1265;108937;-40
2022/09/28 01:04:51;;;;;;;11.90;5.80;;;;;;;8.68;81.92;96923.20;434316;1267;99245;-40
2022/09/28 01:15:00;;;;;;;13.10;6.40;;;;;;;8.85;82.31;96919.20;433972;1268;108821;-41
2022/09/28 01:25:11;;;;;;;15.80;6.60;;;;;;;8.99;82.32;96924.45;433959;1268;99264;-42
2022/09/28 01:35:19;;;;;;;13.90;8.50;;;;;;;9.01;82.40;96929.95;435017;1254;112554;-41
2022/09/28 01:45:28;;;;;;;12.40;7.90;;;;;;;8.87;82.31;96931.75;434108;1265;108912;-39
2022/09/28 01:55:38;;;;;;;10.60;6.70;;;;;;;8.77;82.38;96928.78;433798;1267;99239;-40
2022/09/28 02:05:51;;;;;;;13.30;6.60;;;;;;;8.83;82.44;96922.73;434042;1265;112454;-40
2022/09/28 02:15:56;;;;;;;8.00;6.20;;;;;;;8.96;82.57;96927.71;434436;1262;108727;-40
2022/09/28 02:26:06;;;;;;;6.30;5.10;;;;;;;9.09;82.49;96930.85;434360;1265;99259;-39
2022/09/28 02:36:14;;;;;;;9.10;6.30;;;;;;;9.08;82.70;96934.81;434243;1265;107028;-40
2022/09/28 02:46:21;;;;;;;9.60;6.90;;;;;;;8.93;82.63;96939.47;434686;1265;99224;-39
2022/09/28 03:06:53;;;;;;;8.70;6.60;;;;;;;8.92;82.63;96938.98;434060;1264;108924;-39
2022/09/28 03:17:00;;;;;;;11.00;6.40;;;;;;;8.78;82.48;96936.21;434052;1264;99245;-39
2022/09/28 03:27:08;;;;;;;10.10;7.10;;;;;;;8.66;82.75;96936.06;434255;1265;108936;-40
2022/09/28 03:37:16;;;;;;;10.90;7.10;;;;;;;8.66;82.73;96945.75;434099;1264;99218;-40
2022/09/28 03:47:23;;;;;;;13.20;8.90;;;;;;;8.68;83.01;96945.39;434493;1264;112310;-40
2022/09/28 03:57:31;;;;;;;10.80;8.90;;;;;;;8.69;83.18;96951.41;434194;1265;109153;-38
2022/09/28 04:07:37;;;;;;;10.00;7.50;;;;;;;8.77;83.19;96951.86;434042;1264;99218;-38
2022/09/28 04:17:44;;;;;;;10.40;8.60;;;;;;;8.84;83.18;96950.09;434251;1264;108661;-40
2022/09/28 04:38:17;;;;;;;12.30;7.00;;;;;;;9.11;83.09;96946.15;434133;1265;112386;-40
2022/09/28 04:48:44;;;;;;;12.40;8.30;;;;;;;8.98;83.16;96943.95;433995;1265;108889;-40
2022/09/28 04:58:51;;;;;;;12.30;8.00;;;;;;;8.99;83.32;96950.66;434152;1265;99224;-41
2022/09/28 05:19:06;;;;;;;13.20;8.40;;;;;;;9.17;83.32;96950.70;434155;1265;97988;-40
2022/09/28 05:29:13;;;;;;;15.70;10.60;;;;;;;9.14;83.03;96953.60;434115;1264;112527;-39
2022/09/28 05:39:19;;;;;;;17.10;11.90;;;;;;;9.00;83.28;96945.08;434245;1262;108099;-39
2022/09/28 05:59:35;;;;;;;10.50;8.80;;;;;;;9.46;83.48;96958.17;433929;1266;108880;-41
2022/09/28 06:09:42;;;;;;;13.40;8.00;;;;;;;9.93;83.42;96961.28;433957;1265;97970;-42
2022/09/28 06:19:51;;;;;;;10.20;7.20;;;;;;;10.24;83.46;96959.11;433925;1265;287404;-40
2022/09/28 06:29:59;;;;;;;10.10;7.20;;;;;;;11.23;83.04;96952.48;434407;1266;108956;-40
2022/09/28 06:40:08;;;;;;;9.90;6.50;;;;;;;10.92;81.94;96951.39;434101;1267;99265;-43
2022/09/28 06:50:15;;;;;;;8.30;5.60;;;;;;;10.67;81.98;96962.81;434201;1267;109015;-39
2022/09/28 07:00:23;;;;;;;8.50;5.00;;;;;;;10.53;81.84;96957.16;434040;1266;99289;-40
2022/09/28 07:10:32;;;;;;;12.70;6.70;;;;;;;10.42;82.32;96955.77;434214;1266;112599;-39
2022/09/28 07:20:39;;;;;;;8.50;4.80;;;;;;;10.57;82.00;96969.63;433848;1268;108855;-40
2022/09/28 07:41:12;;;;;;;7.20;4.00;;;;;;;10.83;82.01;96968.30;434384;1266;109741;-39
2022/09/28 07:51:21;;;;;;;10.50;5.40;;;;;;;10.75;81.82;96952.38;433826;1268;99917;-39
2022/09/28 08:01:29;;;;;;;6.90;4.60;;;;;;;10.85;81.86;96936.14;433682;1268;112854;-39
2022/09/28 08:11:37;;;;;;;4.80;4.00;;;;;;;11.85;82.33;96933.58;434188;1267;108625;-40
2022/09/28 08:21:45;;;;;;;8.20;4.00;;;;;;;12.88;81.58;96934.81;434068;1266;97940;-40
2022/09/28 08:31:52;;;;;;;5.60;4.40;;;;;;;12.53;80.14;96953.42;434295;1266;108939;-39
2022/09/28 08:42:07;;;;;;;4.60;3.60;;;;;;;11.78;80.17;96957.77;434217;1266;98824;-40
2022/09/28 08:52:17;;;;;;;7.00;2.90;;;;;;;12.24;80.18;96948.55;433838;1268;112530;-39
2022/09/28 09:02:32;;;;;;;4.10;2.90;;;;;;;12.57;80.19;96941.25;433771;1268;108759;-40
2022/09/28 09:12:44;;;;;;;3.50;2.40;;;;;;;13.36;79.34;96937.09;434046;1268;99222;-39
2022/09/28 09:22:52;;;;;;;4.20;3.10;;;;;;;13.07;78.23;96935.80;433932;1267;108903;-38
2022/09/28 09:33:07;;;;;;;3.10;2.60;;;;;;;12.99;78.64;96935.31;434265;1268;99229;-39
2022/09/28 09:43:31;;;;;;;1.80;1.30;;;;;;;13.36;77.14;96925.59;433797;1267;112602;-40
2022/09/28 09:53:40;;;;;;;2.90;1.60;;;;;;;13.40;75.80;96926.86;433577;1266;108514;-39
2022/09/28 10:03:50;;;;;;;2.50;1.70;;;;;;;13.46;75.21;96936.89;434148;1267;99273;-39
2022/09/28 10:13:58;;;;;;;4.30;2.30;;;;;;;13.79;75.41;96943.38;434394;1266;108939;-39
2022/09/28 10:24:07;;;;;;;1.60;1.30;;;;;;;14.03;74.80;96934.27;433689;1266;98338;-40
2022/09/28 10:34:17;;;;;;;7.20;2.80;;;;;;;14.62;73.92;96920.67;433972;1268;112356;-39
2022/09/28 10:44:26;;;;;;;2.20;1.30;;;;;;;14.77;71.46;96913.98;433810;1267;108686;-40
2022/09/28 10:54:34;;;;;;;2.80;1.10;;;;;;;14.32;70.95;96902.30;434207;1268;99363;-40
2022/09/28 11:04:43;;;;;;;2.30;1.10;;;;;;;14.48;71.10;96887.12;434174;1267;108855;-40
2022/09/28 11:14:55;;;;;;;2.20;1.00;;;;;;;14.66;69.69;96897.13;434067;1268;98128;-40
2022/09/28 11:25:24;;;;;;;2.50;1.50;;;;;;;14.37;69.44;96899.50;434275;1268;112670;-40
2022/09/28 11:35:37;;;;;;;1.70;1.10;;;;;;;14.49;69.34;96905.89;434379;1268;108903;-40
2022/09/28 11:45:47;;;;;;;2.10;1.20;;;;;;;14.81;68.56;96888.79;434134;1266;99251;-41
2022/09/28 11:55:58;;;;;;;3.00;0.90;;;;;;;14.78;67.68;96865.28;433803;1266;108832;-41
2022/09/28 12:06:05;;;;;;;1.00;0.70;;;;;;;14.82;67.88;96852.37;433988;1266;98283;-41
2022/09/28 12:16:18;;;;;;;0.90;0.60;;;;;;;14.92;67.42;96843.38;433844;1268;112855;-39
2022/09/28 12:26:51;;;;;;;2.10;1.20;;;;;;;14.81;66.66;96837.66;433934;1267;109364;-40
2022/09/28 12:37:06;;;;;;;1.30;1.00;;;;;;;14.83;66.95;96838.34;433432;1268;97992;-40
2022/09/28 12:47:32;;;;;;;2.50;1.40;;;;;;;14.31;66.50;96837.82;433997;1266;108865;-40
2022/09/28 12:57:40;;;;;;;2.10;1.60;;;;;;;14.41;67.02;96827.85;433864;1267;99269;-41
2022/09/28 13:07:48;;;;;;;1.90;1.60;;;;;;;14.43;66.81;96813.31;433546;1268;112282;-41
2022/09/28 13:17:55;;;;;;;9.30;1.70;;;;;;;14.25;66.73;96815.39;433822;1267;109092;-41
2022/09/28 13:28:01;;;;;;;4.80;1.70;;;;;;;14.07;66.92;96816.61;434280;1267;99225;-40
2022/09/28 13:48:59;;;;;;;6.40;3.10;;;;;;;13.76;67.67;96806.16;434084;1267;98040;-41
2022/09/28 13:59:09;;;;;;;6.50;3.10;;;;;;;13.75;67.87;96804.22;434281;1268;112388;-39
2022/09/28 14:09:44;;;;;;;10.00;3.20;;;;;;;13.66;67.89;96793.33;434206;1267;108736;-40
2022/09/28 14:19:49;;;;;;;6.00;2.60;;;;;;;13.60;68.17;96779.48;433496;1268;99235;-40
2022/09/28 14:30:07;;;;;;;6.20;3.50;;;;;;;13.47;68.77;96770.52;434126;1266;108838;-40
2022/09/28 14:50:42;;;;;;;6.30;3.80;;;;;;;13.17;70.70;96756.89;433956;1267;112383;-40
2022/09/28 15:00:49;;;;;;;13.10;7.50;;;;;;;13.08;71.43;96755.58;433326;1268;108752;-40
2022/09/28 15:11:00;;;;;;;2.50;1.90;;;;;;;12.93;71.42;96771.81;433833;1267;98522;-40
2022/09/28 15:21:08;;;;;;;5.70;1.60;;;;;;;12.32;71.64;96782.35;433954;1267;108879;-40
2022/09/28 15:41:24;;;;;;;6.40;3.40;;;;;;;11.41;73.13;96797.23;433951;1266;112363;-40
2022/09/28 16:12:14;;;;;;;7.10;4.50;;;;;;;10.83;75.00;96822.52;434112;1267;108993;-40
2022/09/28 16:22:23;;;;;;;7.30;2.50;;;;;;;10.65;75.54;96833.10;433439;1266;98598;-41
2022/09/28 16:32:37;;;;;;;8.30;6.10;;;;;;;10.63;76.25;96833.85;434191;1266;112528;-41
2022/09/28 16:42:45;;;;;;;18.90;12.00;;;;;;;10.64;76.52;96830.79;433982;1267;107741;-40
2022/09/28 17:23:40;;;;;;;8.20;5.70;;;;;;;10.67;77.97;96857.89;434297;1266;111910;-40
2022/09/28 17:33:47;;;;;;;6.40;4.70;;;;;;;10.29;77.92;96833.65;433895;1266;108794;-40
2022/09/28 17:43:55;;;;;;;11.80;6.20;;;;;;;10.12;78.40;96885.40;434036;1267;99910;-41
2022/09/28 17:54:03;;;;;;;14.10;8.30;;;;;;;10.08;78.86;96890.43;434266;1268;108786;-40
2022/09/28 18:04:12;;;;;;;15.40;11.00;;;;;;;10.18;79.21;96895.27;434412;1267;98043;-40
2022/09/28 18:24:46;;;;;;;30.10;18.60;;;;;;;10.35;79.70;96906.11;433574;1268;451457;-40
2022/09/28 18:34:53;;;;;;;32.70;22.40;;;;;;;10.40;80.02;96910.98;434090;1266;99222;-40
2022/09/28 18:45:00;;;;;;;36.50;21.50;;;;;;;10.45;80.16;96906.15;434301;1268;109044;-40
2022/09/28 18:55:06;;;;;;;42.50;26.20;;;;;;;10.28;79.95;96917.91;434449;1267;99360;-40
2022/09/28 19:05:14;;;;;;;32.40;21.90;;;;;;;9.95;79.86;96927.01;434387;1267;112458;-40
2022/09/28 19:25:25;;;;;;;35.20;23.20;;;;;;;9.26;79.69;96933.09;433631;1267;99251;-41
2022/09/28 19:35:32;;;;;;;79.90;46.30;;;;;;;9.09;79.94;96918.05;434049;1266;109552;-40
2022/09/28 19:45:41;;;;;;;80.40;48.40;;;;;;;8.84;80.11;96920.73;434114;1268;99235;-40
2022/09/28 19:55:51;;;;;;;87.60;50.20;;;;;;;8.68;80.54;96935.65;434363;1267;112585;-40
2022/09/28 20:06:02;;;;;;;82.00;51.30;;;;;;;8.56;80.65;96951.95;433972;1266;109037;-40
2022/09/28 20:16:07;;;;;;;84.30;53.20;;;;;;;8.67;81.23;96972.10;434276;1267;99272;-39
2022/09/28 20:26:15;;;;;;;68.60;43.20;;;;;;;8.94;81.59;96983.91;434145;1266;108911;-39
2022/09/28 20:46:31;;;;;;;47.40;30.90;;;;;;;9.53;82.13;96975.38;434081;1267;112738;-39
2022/09/28 20:56:39;;;;;;;36.60;23.90;;;;;;;9.85;82.16;96989.75;434057;1266;108139;-41
2022/09/28 21:06:46;;;;;;;25.60;15.60;;;;;;;9.95;82.04;96988.69;434171;1267;99269;-40
2022/09/28 21:16:54;;;;;;;27.80;20.40;;;;;;;9.84;81.80;97012.71;433967;1265;108949;-40
2022/09/28 21:27:01;;;;;;;31.50;18.80;;;;;;;9.71;81.73;97006.38;433864;1266;98856;-41
2022/09/28 21:37:09;;;;;;;134.10;72.30;;;;;;;9.61;81.67;97020.09;434391;1265;112530;-40
2022/09/28 21:47:16;;;;;;;42.90;27.50;;;;;;;9.61;81.84;97045.20;434107;1266;108709;-40
2022/09/28 21:57:23;;;;;;;43.30;28.00;;;;;;;9.41;81.72;97052.88;434173;1266;98815;-40
2022/09/28 22:07:30;;;;;;;37.90;24.40;;;;;;;9.34;81.85;97066.63;434076;1266;108865;-40
2022/09/28 22:27:44;;;;;;;31.10;20.00;;;;;;;9.54;82.37;97062.67;434298;1266;112482;-40
2022/09/28 22:37:51;;;;;;;27.70;19.30;;;;;;;9.64;82.39;97090.60;434340;1266;108782;-40
2022/09/28 22:47:58;;;;;;;23.30;13.00;;;;;;;9.56;82.07;97093.60;433534;1265;98834;-40
2022/09/28 22:58:06;;;;;;;17.60;12.50;;;;;;;9.41;81.94;97100.52;434022;1267;108919;-41
2022/09/28 23:08:13;;;;;;;16.60;9.50;;;;;;;9.44;82.31;97087.86;434078;1266;99241;-41
2022/09/28 23:18:20;;;;;;;14.80;9.70;;;;;;;9.63;82.38;97088.38;433766;1265;112491;-40
2022/09/28 23:28:27;;;;;;;24.10;10.70;;;;;;;9.62;82.38;97097.98;434451;1266;108964;-38
2022/09/28 23:38:34;;;;;;;15.20;9.30;;;;;;;9.41;82.21;97103.89;433655;1266;98012;-40
2022/09/28 23:58:48;;;;;;;8.60;6.10;;;;;;;9.13;82.20;97132.05;433784;1267;98527;-41
